Huvudsida
METAR-TAF:

METAR-TAF

Flygplatser :

Mitiga International Airport

Tripoli, Libyen

latitud: 32-54N, longitud: 13-17E, höjd: 11 m

Aktuellt väderrapport

Denna rapport gjordes för 1 timme och 2 minuter sedan, klockan 00:50 UTC
Vind 2 kt från syd/sydost
Temperatur 29°C
Fuktighet 62%
Tryck 1015 hPa
Sikt: 7000 m
Spridda moln på en höjd av 3000 ft
Få moln på en höjd av 1200 ft, Cumulonimbus.

METAR: HLLM 190050Z 15002KT 7000 SCT030 FEW012CB 29/21 Q1015

Tid: 03:52 (01:52 UTC)

Väderprognos

Denna rapport gjordes för 8 timmar och 52 minuter sedan, klockan 17:00 UTC
Prognos gäller från 17 kl. 18 UTC till 18 kl. 18 UTC
Vind 12 kt från ost
Sikt 10 km eller mer
Inga moln under 1 500 m eller inga cumulonimbus
Blir
från 17 kl. 00 UTC till 18 kl. 02 UTC
Vind 2 kt varierande vindriktning
Sikt: 8000 m
Blir
från 18 kl. 06 UTC till 18 kl. 08 UTC
Vind 10 kt från ost/nordost

TAF: HLLM 171700Z 1718/1818 09012KT CAVOK BECMG 1700/1802 VRB02KT 8000 NSC BECMG 1806/1808 06010KT

Aktuella väderrapporter och prognoser från 4000 flygplatser (METAR- och TAF-rapporter).

De tillgängliga stationerna syns som gula och röda prickar på kartan.

För musen över prickarna för att se namnen på stationerna.

Klicka sedan för att få väderrapporter och prognoser.

För att ändra kartan: Klicka på de gröna knapparna med ett svart kors på för att zooma in; den gröna knappen med ett streck på för att zooma ut; eller på de gröna pilarna för angränsande kartor.


METAR-TAF: